createdAt,value
2023-01-31T02:30:13.746Z,85.13
2023-01-31T02:34:01.707Z,85.81
2023-01-31T02:37:45.356Z,85.56
2023-01-31T02:41:22.714Z,86.17
2023-01-31T02:45:27.846Z,86.61
2023-01-31T02:49:12.643Z,86.43
2023-01-31T02:53:09.815Z,87.42
2023-01-31T02:56:56.579Z,86.99
2023-01-31T03:00:47.515Z,87.36
2023-01-31T03:07:23.690Z,86.46
2023-01-31T03:11:03.879Z,87.03
2023-01-31T03:14:14.324Z,87.63
2023-01-31T03:17:12.545Z,91.36
2023-01-31T03:20:26.750Z,90.46
2023-01-31T03:23:09.796Z,91.63
2023-01-31T03:25:55.845Z,90.57
2023-01-31T03:28:43.446Z,91.44
2023-01-31T03:31:28.525Z,91.03
2023-01-31T03:34:07.985Z,90.87
2023-01-31T03:36:53.746Z,90.79
2023-01-31T03:40:13.941Z,90.78
2023-01-31T03:42:49.750Z,90.95
2023-01-31T03:46:12.612Z,91.12
2023-01-31T03:49:39.238Z,89.83
2023-01-31T03:53:51.816Z,89.93
2023-01-31T03:58:42.845Z,88.45
2023-01-31T04:02:10.565Z,88.06
2023-01-31T04:05:37.070Z,88.35
2023-01-31T04:08:22.801Z,87.85
2023-01-31T04:10:58.162Z,87.87
2023-01-31T04:13:29.177Z,87.59
2023-01-31T04:16:00.367Z,87.31
2023-01-31T04:18:36.641Z,86.98
2023-01-31T04:21:14.728Z,87.33
2023-01-31T04:23:46.844Z,87.52
2023-01-31T04:26:19.437Z,87.36
2023-01-31T04:28:57.066Z,87.43
2023-01-31T04:31:39.635Z,87.61
2023-01-31T04:34:11.716Z,87.52
2023-01-31T04:36:43.380Z,87.42
2023-01-31T04:39:18.961Z,87.35
2023-01-31T04:41:50.124Z,87.63
2023-01-31T04:44:21.309Z,87.72
2023-01-31T04:46:54.603Z,87.78
2023-01-31T04:49:30.075Z,88.04
2023-01-31T04:52:03.480Z,87.92
2023-01-31T04:54:36.382Z,87.65
2023-01-31T04:57:12.027Z,87.70
2023-01-31T04:59:43.153Z,88.22
2023-01-31T05:02:14.550Z,89.16
2023-01-31T05:04:46.484Z,88.84
2023-01-31T05:07:15.659Z,88.51
2023-01-31T05:09:55.784Z,88.65
2023-01-31T05:12:23.661Z,89.37
2023-01-31T05:14:53.814Z,89.97
2023-01-31T05:17:37.240Z,89.71
2023-01-31T05:20:12.802Z,90.01
2023-01-31T05:22:48.333Z,89.78
2023-01-31T05:25:26.845Z,89.80
2023-01-31T05:27:57.621Z,89.60
2023-01-31T05:30:31.553Z,89.98
2023-01-31T05:33:01.477Z,89.83
2023-01-31T05:35:33.271Z,90.08
2023-01-31T05:38:08.315Z,91.03
2023-01-31T05:40:55.900Z,90.56
2023-01-31T05:43:31.298Z,90.51
2023-01-31T05:46:05.741Z,90.66
2023-01-31T05:48:52.932Z,90.53
2023-01-31T05:51:39.618Z,90.67
2023-01-31T05:54:44.463Z,90.83
2023-01-31T05:58:02.473Z,90.66
2023-01-31T06:01:44.343Z,90.87
2023-01-31T06:05:18.478Z,92.66
2023-01-31T06:09:01.522Z,92.59
2023-01-31T06:12:53.369Z,93.07
2023-01-31T06:15:30.084Z,92.63
2023-01-31T06:18:05.233Z,92.36
2023-01-31T06:20:38.167Z,92.38
2023-01-31T06:23:18.122Z,92.39
2023-01-31T06:25:54.861Z,92.37
2023-01-31T06:28:26.197Z,92.40
2023-01-31T06:30:57.958Z,92.13
2023-01-31T06:33:43.654Z,91.68
2023-01-31T06:36:18.066Z,91.35
2023-01-31T06:38:53.667Z,91.48
2023-01-31T06:41:29.794Z,92.13
2023-01-31T06:44:03.281Z,92.83
2023-01-31T06:46:34.756Z,92.77
2023-01-31T06:49:08.325Z,92.82
2023-01-31T06:51:39.592Z,92.82
2023-01-31T06:54:20.152Z,92.84
2023-01-31T06:56:51.609Z,92.75
2023-01-31T06:59:23.128Z,92.69
2023-01-31T07:01:54.676Z,92.55
2023-01-31T07:04:28.751Z,92.56
2023-01-31T07:06:59.028Z,91.39
2023-01-31T07:09:26.083Z,90.41
2023-01-31T07:11:56.925Z,90.02
2023-01-31T07:14:32.504Z,89.92
2023-01-31T07:17:07.503Z,90.53
2023-01-31T07:19:38.578Z,89.98
2023-01-31T07:22:11.837Z,88.90
2023-01-31T07:24:45.189Z,88.41
2023-01-31T07:27:54.506Z,88.28
2023-01-31T07:34:54.680Z,87.71
2023-01-31T07:45:46.986Z,87.10
2023-01-31T07:48:23.007Z,85.50
2023-01-31T07:51:02.266Z,86.46
2023-01-31T07:53:41.420Z,85.39
2023-01-31T07:56:16.405Z,84.35
2023-01-31T07:58:51.535Z,84.52
2023-01-31T08:02:00.137Z,84.06
2023-01-31T08:05:47.672Z,83.05
2023-01-31T08:09:54.281Z,82.09
2023-01-31T08:13:44.128Z,82.78
2023-01-31T08:17:18.238Z,82.32
2023-01-31T08:20:45.045Z,82.60
2023-01-31T08:23:14.950Z,81.82
2023-01-31T08:25:48.043Z,81.30
2023-01-31T08:28:22.388Z,80.87
2023-01-31T08:31:28.125Z,80.58
2023-01-31T08:34:16.069Z,81.95
2023-01-31T08:36:47.599Z,81.97
2023-01-31T08:39:58.370Z,79.24
2023-01-31T08:42:36.115Z,78.11
2023-01-31T08:45:04.015Z,79.11
2023-01-31T08:47:32.547Z,79.27
2023-01-31T08:50:40.556Z,78.37
2023-01-31T08:54:10.061Z,78.14
2023-01-31T08:57:12.247Z,78.01
2023-01-31T09:00:33.618Z,79.62
2023-01-31T09:03:48.202Z,80.08
2023-01-31T09:06:48.643Z,79.36
2023-01-31T09:09:51.823Z,78.97
2023-01-31T09:13:07.639Z,78.27
